<?xml version='1.0' encoding='UTF-8'?><gpx version="1.1" creator="JPX - https://github.com/jenetics/jpx" xmlns="http://www.topografix.com/GPX/1/1"><trk><trkseg><trkpt lat="44.67679589564756" lon="8.465807486568533"><ele>163.0</ele><time>2026-04-20T11:01:48.57Z</time></trkpt><trkpt lat="44.67673705182086" lon="8.465763506193948"><ele>163.0</ele><time>2026-04-20T11:01:52.57Z</time></trkpt><trkpt lat="44.676678025220276" lon="8.465718119807315"><ele>163.0</ele><time>2026-04-20T11:01:58.57Z</time></trkpt><trkpt lat="44.676621883772434" lon="8.465672049282423"><ele>163.0</ele><time>2026-04-20T11:02:08.57Z</time></trkpt><trkpt lat="44.676588058014545" lon="8.465594781072287"><ele>163.0</ele><time>2026-04-20T11:02:10.948Z</time></trkpt><trkpt lat="44.676584608765815" lon="8.465684471018985"><ele>163.0</ele><time>2026-04-20T11:02:16.948Z</time></trkpt><trkpt lat="44.67660477891214" lon="8.465770393628011"><ele>163.0</ele><time>2026-04-20T11:02:22.948Z</time></trkpt><trkpt lat="44.6766725842629" lon="8.465796375918558"><ele>163.0</ele><time>2026-04-20T11:02:31.948Z</time></trkpt><trkpt lat="44.67673604203213" lon="8.465831235152692"><ele>163.0</ele><time>2026-04-20T11:02:37.948Z</time></trkpt><trkpt lat="44.67678737613047" lon="8.465884027721124"><ele>163.0</ele><time>2026-04-20T11:02:42.948Z</time></trkpt><trkpt lat="44.67683252407962" lon="8.465946053534603"><ele>163.0</ele><time>2026-04-20T11:02:46.948Z</time></trkpt><trkpt lat="44.676892793726545" lon="8.466010554533096"><ele>163.0</ele><time>2026-04-20T11:02:50.948Z</time></trkpt><trkpt lat="44.676918678376516" lon="8.466116327784114"><ele>163.0</ele><time>2026-04-20T11:02:56.948Z</time></trkpt><trkpt lat="44.67695891973803" lon="8.466192102248598"><ele>163.0</ele><time>2026-04-20T11:03:01.948Z</time></trkpt><trkpt lat="44.67699484766532" lon="8.466270893682472"><ele>163.0</ele><time>2026-04-20T11:03:06.948Z</time></trkpt><trkpt lat="44.677048175773415" lon="8.46634572275396"><ele>163.0</ele><time>2026-04-20T11:03:11.949Z</time></trkpt><trkpt lat="44.677082961604654" lon="8.466426384286555"><ele>163.0</ele><time>2026-04-20T11:03:17.953Z</time></trkpt><trkpt lat="44.67712255538549" lon="8.466506505464563"><ele>163.0</ele><time>2026-04-20T11:03:23.956Z</time></trkpt><trkpt lat="44.67716501024361" lon="8.466579006472484"><ele>163.0</ele><time>2026-04-20T11:03:28.957Z</time></trkpt><trkpt lat="44.677208648932925" lon="8.466653316183036"><ele>163.0</ele><time>2026-04-20T11:03:34.958Z</time></trkpt><trkpt lat="44.67724182846686" lon="8.466731822055102"><ele>163.0</ele><time>2026-04-20T11:03:39.959Z</time></trkpt><trkpt lat="44.67728433528386" lon="8.466808303110046"><ele>163.0</ele><time>2026-04-20T11:03:45.96Z</time></trkpt><trkpt lat="44.67731121601671" lon="8.466903104286928"><ele>163.0</ele><time>2026-04-20T11:03:51.96Z</time></trkpt><trkpt lat="44.67734922903509" lon="8.466997460570724"><ele>163.0</ele><time>2026-04-20T11:03:57.961Z</time></trkpt><trkpt lat="44.67737136811141" lon="8.467088282278345"><ele>163.0</ele><time>2026-04-20T11:04:03.974Z</time></trkpt><trkpt lat="44.67737632149069" lon="8.467189384206252"><ele>163.0</ele><time>2026-04-20T11:04:09.983Z</time></trkpt><trkpt lat="44.6773230822945" lon="8.467240078406247"><ele>163.0</ele><time>2026-04-20T11:04:20.992Z</time></trkpt><trkpt lat="44.67728464137098" lon="8.467317120317349"><ele>163.0</ele><time>2026-04-20T11:04:25.995Z</time></trkpt><trkpt lat="44.67724969163039" lon="8.46740004006655"><ele>163.2857142857143</ele><time>2026-04-20T11:04:31.997Z</time></trkpt><trkpt lat="44.67722878948278" lon="8.467483721505022"><ele>163.57142857142856</ele><time>2026-04-20T11:04:35.998Z</time></trkpt><trkpt lat="44.67720724845035" lon="8.467582510095001"><ele>163.85714285714286</ele><time>2026-04-20T11:04:40.999Z</time></trkpt><trkpt lat="44.677204469739344" lon="8.467690580092606"><ele>164.14285714285717</ele><time>2026-04-20T11:04:46.999Z</time></trkpt><trkpt lat="44.677202234059145" lon="8.467789830198125"><ele>164.42857142857144</ele><time>2026-04-20T11:04:54Z</time></trkpt><trkpt lat="44.677166534220774" lon="8.467881637223094"><ele>164.71428571428572</ele><time>2026-04-20T11:04:59Z</time></trkpt><trkpt lat="44.67716431573064" lon="8.467978053614878"><ele>165.0</ele><time>2026-04-20T11:05:03Z</time></trkpt><trkpt lat="44.6771226904115" lon="8.468061984973266"><ele>165.00000000000003</ele><time>2026-04-20T11:05:08.001Z</time></trkpt><trkpt lat="44.677120019861775" lon="8.46815607594519"><ele>165.0</ele><time>2026-04-20T11:05:14.001Z</time></trkpt><trkpt lat="44.677121481529596" lon="8.468254128841528"><ele>165.0</ele><time>2026-04-20T11:05:19.001Z</time></trkpt><trkpt lat="44.67709809568908" lon="8.468342017636"><ele>165.0</ele><time>2026-04-20T11:05:25.001Z</time></trkpt><trkpt lat="44.677058850856234" lon="8.4684186539614"><ele>165.0</ele><time>2026-04-20T11:05:31.001Z</time></trkpt><trkpt lat="44.6770398181039" lon="8.468506921112857"><ele>165.00000000000003</ele><time>2026-04-20T11:05:38.001Z</time></trkpt><trkpt lat="44.67700360105251" lon="8.468600729507546"><ele>165.0</ele><time>2026-04-20T11:05:43.001Z</time></trkpt><trkpt lat="44.676974538015436" lon="8.468701637175531"><ele>165.00000000000003</ele><time>2026-04-20T11:05:48.001Z</time></trkpt><trkpt lat="44.6769704996761" lon="8.468793980001234"><ele>165.0</ele><time>2026-04-20T11:05:54.001Z</time></trkpt><trkpt lat="44.676976201975016" lon="8.46888738737096"><ele>165.0</ele><time>2026-04-20T11:05:59.001Z</time></trkpt><trkpt lat="44.676977884181454" lon="8.468979650455532"><ele>165.0</ele><time>2026-04-20T11:06:04.001Z</time></trkpt><trkpt lat="44.67697106094776" lon="8.469068670148078"><ele>165.0</ele><time>2026-04-20T11:06:09.001Z</time></trkpt><trkpt lat="44.67694240066365" lon="8.469169141117954"><ele>165.00000000000003</ele><time>2026-04-20T11:06:14.001Z</time></trkpt><trkpt lat="44.676903940641594" lon="8.469252610269086"><ele>165.0</ele><time>2026-04-20T11:06:20Z</time></trkpt><trkpt lat="44.67691870942218" lon="8.469342295372796"><ele>165.00000000000003</ele><time>2026-04-20T11:06:24Z</time></trkpt><trkpt lat="44.676909990030175" lon="8.469439331142619"><ele>165.0</ele><time>2026-04-20T11:06:29Z</time></trkpt><trkpt lat="44.676900659583794" lon="8.469535462869327"><ele>165.0</ele><time>2026-04-20T11:06:34Z</time></trkpt><trkpt lat="44.67695020752742" lon="8.46960511945322"><ele>165.0</ele><time>2026-04-20T11:06:38Z</time></trkpt><trkpt lat="44.676923109821054" lon="8.469693182704994"><ele>165.0</ele><time>2026-04-20T11:06:42Z</time></trkpt><trkpt lat="44.67689134476045" lon="8.46978002032197"><ele>165.00000000000003</ele><time>2026-04-20T11:06:47Z</time></trkpt><trkpt lat="44.676871073557415" lon="8.469884151933005"><ele>165.0</ele><time>2026-04-20T11:06:52Z</time></trkpt><trkpt lat="44.67684967985978" lon="8.46997086584113"><ele>165.2857142857143</ele><time>2026-04-20T11:06:57Z</time></trkpt><trkpt lat="44.67682649959434" lon="8.470062865321822"><ele>165.57142857142858</ele><time>2026-04-20T11:07:02Z</time></trkpt><trkpt lat="44.67681217012342" lon="8.470165384075969"><ele>165.85714285714286</ele><time>2026-04-20T11:07:08Z</time></trkpt><trkpt lat="44.67678878908835" lon="8.470265441288335"><ele>166.14285714285717</ele><time>2026-04-20T11:07:14Z</time></trkpt><trkpt lat="44.67680073514652" lon="8.470355465478743"><ele>166.42857142857144</ele><time>2026-04-20T11:07:18Z</time></trkpt><trkpt lat="44.67677995038589" lon="8.470440762004257"><ele>166.71428571428572</ele><time>2026-04-20T11:07:23Z</time></trkpt><trkpt lat="44.676756202667505" lon="8.470524210237246"><ele>167.0</ele><time>2026-04-20T11:07:28Z</time></trkpt><trkpt lat="44.67674524135575" lon="8.470612346808018"><ele>167.0</ele><time>2026-04-20T11:07:34Z</time></trkpt><trkpt lat="44.676720837107965" lon="8.470708779408897"><ele>167.0</ele><time>2026-04-20T11:07:40Z</time></trkpt><trkpt lat="44.67671962499488" lon="8.470801672371975"><ele>167.0</ele><time>2026-04-20T11:07:46Z</time></trkpt><trkpt lat="44.67674736047316" lon="8.47088546995728"><ele>167.0</ele><time>2026-04-20T11:07:52Z</time></trkpt><trkpt lat="44.676682620542834" lon="8.47098552349017"><ele>167.0</ele><time>2026-04-20T11:08:04.999Z</time></trkpt><trkpt lat="44.676626021911666" lon="8.4710334365144"><ele>167.0</ele><time>2026-04-20T11:08:09Z</time></trkpt><trkpt lat="44.67656505690696" lon="8.471095278050155"><ele>167.0</ele><time>2026-04-20T11:08:14Z</time></trkpt><trkpt lat="44.6765409722941" lon="8.471189291160075"><ele>167.0</ele><time>2026-04-20T11:08:21Z</time></trkpt><trkpt lat="44.676497456273566" lon="8.471268711878658"><ele>167.0</ele><time>2026-04-20T11:08:27Z</time></trkpt><trkpt lat="44.676443763472264" lon="8.471340384993681"><ele>167.0</ele><time>2026-04-20T11:08:33Z</time></trkpt><trkpt lat="44.67639171100618" lon="8.471397047395651"><ele>167.0</ele><time>2026-04-20T11:08:38Z</time></trkpt><trkpt lat="44.67636475784739" lon="8.471477733064072"><ele>167.0</ele><time>2026-04-20T11:08:43Z</time></trkpt><trkpt lat="44.67633232059099" lon="8.471570937070647"><ele>167.0</ele><time>2026-04-20T11:08:49Z</time></trkpt><trkpt lat="44.676294691597505" lon="8.471642958024967"><ele>167.0</ele><time>2026-04-20T11:08:54Z</time></trkpt><trkpt lat="44.676250868892055" lon="8.471723933229873"><ele>167.14285714285714</ele><time>2026-04-20T11:09:00Z</time></trkpt><trkpt lat="44.67620850907919" lon="8.471794105713757"><ele>167.28571428571428</ele><time>2026-04-20T11:09:05Z</time></trkpt><trkpt lat="44.67618608938916" lon="8.47188210891692"><ele>167.42857142857144</ele><time>2026-04-20T11:09:10Z</time></trkpt><trkpt lat="44.67614517589148" lon="8.47196952329015"><ele>167.57142857142856</ele><time>2026-04-20T11:09:16Z</time></trkpt><trkpt lat="44.67609367335118" lon="8.472039929501573"><ele>167.71428571428572</ele><time>2026-04-20T11:09:22Z</time></trkpt><trkpt lat="44.67604969554825" lon="8.472120010840744"><ele>167.85714285714286</ele><time>2026-04-20T11:09:28Z</time></trkpt><trkpt lat="44.67600078449243" lon="8.472185508846835"><ele>168.0</ele><time>2026-04-20T11:09:35Z</time></trkpt><trkpt lat="44.675962290681085" lon="8.472255979171415"><ele>168.71428571428572</ele><time>2026-04-20T11:09:40Z</time></trkpt><trkpt lat="44.67592334681053" lon="8.472346391975517"><ele>169.42857142857144</ele><time>2026-04-20T11:09:45Z</time></trkpt><trkpt lat="44.67588186970018" lon="8.472431827932231"><ele>170.14285714285714</ele><time>2026-04-20T11:09:51Z</time></trkpt><trkpt lat="44.67586952685436" lon="8.472533634650658"><ele>170.85714285714286</ele><time>2026-04-20T11:09:56Z</time></trkpt><trkpt lat="44.675824466015946" lon="8.47262957476213"><ele>171.57142857142858</ele><time>2026-04-20T11:10:03Z</time></trkpt><trkpt lat="44.67577808885311" lon="8.47269881418837"><ele>172.28571428571428</ele><time>2026-04-20T11:10:08Z</time></trkpt><trkpt lat="44.67572604667569" lon="8.472756244114715"><ele>173.0</ele><time>2026-04-20T11:10:14Z</time></trkpt><trkpt lat="44.67568029306481" lon="8.472831521673383"><ele>173.0</ele><time>2026-04-20T11:10:19Z</time></trkpt><trkpt lat="44.67561716632874" lon="8.472894132459968"><ele>173.0</ele><time>2026-04-20T11:10:26Z</time></trkpt><trkpt lat="44.67556588379085" lon="8.472967807151496"><ele>173.0</ele><time>2026-04-20T11:10:31Z</time></trkpt><trkpt lat="44.67552180018757" lon="8.47305933586156"><ele>173.0</ele><time>2026-04-20T11:10:37Z</time></trkpt><trkpt lat="44.675489273473914" lon="8.473138685885413"><ele>173.0</ele><time>2026-04-20T11:10:42Z</time></trkpt><trkpt lat="44.675453339748735" lon="8.473214032240284"><ele>173.0</ele><time>2026-04-20T11:10:47Z</time></trkpt><trkpt lat="44.67542251915816" lon="8.473300213255552"><ele>173.0</ele><time>2026-04-20T11:10:52Z</time></trkpt><trkpt lat="44.67537139130491" lon="8.473369422561836"><ele>173.42857142857142</ele><time>2026-04-20T11:10:58Z</time></trkpt><trkpt lat="44.67536170600825" lon="8.473471451988418"><ele>173.85714285714286</ele><time>2026-04-20T11:11:04Z</time></trkpt><trkpt lat="44.6753229758718" lon="8.47354301825594"><ele>174.28571428571428</ele><time>2026-04-20T11:11:09Z</time></trkpt><trkpt lat="44.67529146502886" lon="8.473633598956889"><ele>174.71428571428572</ele><time>2026-04-20T11:11:15Z</time></trkpt><trkpt lat="44.67525766264259" lon="8.473718044592697"><ele>175.14285714285714</ele><time>2026-04-20T11:11:21Z</time></trkpt><trkpt lat="44.67523759043554" lon="8.47380491927556"><ele>175.57142857142858</ele><time>2026-04-20T11:11:26Z</time></trkpt><trkpt lat="44.67520496705647" lon="8.473887358792899"><ele>176.0</ele><time>2026-04-20T11:11:32Z</time></trkpt><trkpt lat="44.6751584658664" lon="8.47397013815807"><ele>176.85714285714286</ele><time>2026-04-20T11:11:38Z</time></trkpt><trkpt lat="44.675123533440015" lon="8.47406097088067"><ele>177.71428571428572</ele><time>2026-04-20T11:11:44Z</time></trkpt><trkpt lat="44.67508865584886" lon="8.474143382568206"><ele>178.57142857142856</ele><time>2026-04-20T11:11:49Z</time></trkpt><trkpt lat="44.67504300876675" lon="8.474215964259452"><ele>179.42857142857144</ele><time>2026-04-20T11:11:54Z</time></trkpt><trkpt lat="44.674990014255876" lon="8.474266523170963"><ele>180.28571428571428</ele><time>2026-04-20T11:11:59Z</time></trkpt><trkpt lat="44.67493495122845" lon="8.474320451854235"><ele>181.14285714285714</ele><time>2026-04-20T11:12:04Z</time></trkpt><trkpt lat="44.67489848246469" lon="8.474399655415244"><ele>182.0</ele><time>2026-04-20T11:12:09Z</time></trkpt><trkpt lat="44.67486301062818" lon="8.474477485817747"><ele>182.0</ele><time>2026-04-20T11:12:13.999Z</time></trkpt><trkpt lat="44.67481642517903" lon="8.474563770493136"><ele>182.0</ele><time>2026-04-20T11:12:20Z</time></trkpt><trkpt lat="44.67476760472778" lon="8.474630228643125"><ele>182.0</ele><time>2026-04-20T11:12:25Z</time></trkpt><trkpt lat="44.674709450058934" lon="8.474698139584232"><ele>182.0</ele><time>2026-04-20T11:12:31Z</time></trkpt><trkpt lat="44.67466558767134" lon="8.474764701667842"><ele>182.0</ele><time>2026-04-20T11:12:36Z</time></trkpt><trkpt lat="44.67461091729283" lon="8.474829706572445"><ele>182.0</ele><time>2026-04-20T11:12:41Z</time></trkpt><trkpt lat="44.67455378514354" lon="8.474884980180633"><ele>182.0</ele><time>2026-04-20T11:12:47Z</time></trkpt><trkpt lat="44.674506154804774" lon="8.474959588574508"><ele>182.14285714285714</ele><time>2026-04-20T11:12:52Z</time></trkpt><trkpt lat="44.67444266225262" lon="8.475027210442088"><ele>182.28571428571428</ele><time>2026-04-20T11:12:58Z</time></trkpt><trkpt lat="44.67439111522564" lon="8.475082604824621"><ele>182.42857142857144</ele><time>2026-04-20T11:13:03Z</time></trkpt><trkpt lat="44.67432922543649" lon="8.475152413717305"><ele>182.57142857142856</ele><time>2026-04-20T11:13:09Z</time></trkpt><trkpt lat="44.67427884282454" lon="8.475211234555646"><ele>182.71428571428572</ele><time>2026-04-20T11:13:14Z</time></trkpt><trkpt lat="44.67422482258327" lon="8.47525899774428"><ele>182.85714285714286</ele><time>2026-04-20T11:13:19Z</time></trkpt><trkpt lat="44.67418217938898" lon="8.475328593580073"><ele>183.0</ele><time>2026-04-20T11:13:24Z</time></trkpt><trkpt lat="44.67413043625535" lon="8.47538761971924"><ele>182.14285714285714</ele><time>2026-04-20T11:13:29Z</time></trkpt><trkpt lat="44.67408826129586" lon="8.47545406942426"><ele>181.28571428571428</ele><time>2026-04-20T11:13:34Z</time></trkpt><trkpt lat="44.674028385222485" lon="8.475513806182027"><ele>180.42857142857144</ele><time>2026-04-20T11:13:40Z</time></trkpt><trkpt lat="44.67397003310839" lon="8.47558384066155"><ele>179.57142857142856</ele><time>2026-04-20T11:13:46Z</time></trkpt><trkpt lat="44.67391609032872" lon="8.475650168388558"><ele>178.7142857142857</ele><time>2026-04-20T11:13:51Z</time></trkpt><trkpt lat="44.673865739625015" lon="8.475716152517856"><ele>177.85714285714286</ele><time>2026-04-20T11:13:57Z</time></trkpt><trkpt lat="44.673812811021286" lon="8.475780645475819"><ele>177.0</ele><time>2026-04-20T11:14:02Z</time></trkpt><trkpt lat="44.67376591593301" lon="8.475852087294562"><ele>177.0</ele><time>2026-04-20T11:14:08.999Z</time></trkpt><trkpt lat="44.673710981730856" lon="8.47592868636166"><ele>177.0</ele><time>2026-04-20T11:14:14.999Z</time></trkpt><trkpt lat="44.67368831494053" lon="8.476017559709115"><ele>177.0</ele><time>2026-04-20T11:14:19.999Z</time></trkpt><trkpt lat="44.67363883003966" lon="8.476083856017738"><ele>177.0</ele><time>2026-04-20T11:14:25Z</time></trkpt><trkpt lat="44.673586606159056" lon="8.476138241107886"><ele>177.0</ele><time>2026-04-20T11:14:31Z</time></trkpt><trkpt lat="44.67355362426986" lon="8.476218022120925"><ele>177.0</ele><time>2026-04-20T11:14:41Z</time></trkpt><trkpt lat="44.67349266014378" lon="8.476262971144232"><ele>177.0</ele><time>2026-04-20T11:14:49Z</time></trkpt><trkpt lat="44.673414544840654" lon="8.476245511076653"><ele>175.71428571428572</ele><time>2026-04-20T11:14:53Z</time></trkpt><trkpt lat="44.67334019184384" lon="8.476221222574068"><ele>174.42857142857142</ele><time>2026-04-20T11:14:56Z</time></trkpt><trkpt lat="44.673273333576645" lon="8.476219780871219"><ele>173.14285714285714</ele><time>2026-04-20T11:15:00Z</time></trkpt><trkpt lat="44.673196292354845" lon="8.476233022363928"><ele>171.85714285714286</ele><time>2026-04-20T11:15:05Z</time></trkpt><trkpt lat="44.6731318356617" lon="8.476247004043419"><ele>170.57142857142856</ele><time>2026-04-20T11:15:09Z</time></trkpt><trkpt lat="44.67307520291385" lon="8.476185924675045"><ele>169.28571428571428</ele><time>2026-04-20T11:15:15Z</time></trkpt><trkpt lat="44.673045796564935" lon="8.476095007546219"><ele>168.0</ele><time>2026-04-20T11:15:22Z</time></trkpt><trkpt lat="44.673030132483255" lon="8.476002269404947"><ele>168.0</ele><time>2026-04-20T11:15:28Z</time></trkpt><trkpt lat="44.67303540463555" lon="8.475908675539596"><ele>168.0</ele><time>2026-04-20T11:15:35Z</time></trkpt><trkpt lat="44.673029171002" lon="8.475814939853597"><ele>168.0</ele><time>2026-04-20T11:15:39Z</time></trkpt><trkpt lat="44.67302095247941" lon="8.475717817711965"><ele>168.0</ele><time>2026-04-20T11:15:43Z</time></trkpt><trkpt lat="44.6730293825105" lon="8.475628151710474"><ele>168.0</ele><time>2026-04-20T11:15:47Z</time></trkpt><trkpt lat="44.673039678349305" lon="8.475526657601309"><ele>168.0</ele><time>2026-04-20T11:15:52Z</time></trkpt><trkpt lat="44.673042446011245" lon="8.47541689345085"><ele>168.0</ele><time>2026-04-20T11:15:57Z</time></trkpt><trkpt lat="44.67304485026563" lon="8.475324511445972"><ele>167.85714285714286</ele><time>2026-04-20T11:16:01Z</time></trkpt><trkpt lat="44.67304581522565" lon="8.475218707112925"><ele>167.71428571428572</ele><time>2026-04-20T11:16:07.999Z</time></trkpt><trkpt lat="44.67305249151913" lon="8.475125174159786"><ele>167.57142857142856</ele><time>2026-04-20T11:16:11.999Z</time></trkpt><trkpt lat="44.673058982683166" lon="8.475033398101576"><ele>167.42857142857144</ele><time>2026-04-20T11:16:16.999Z</time></trkpt><trkpt lat="44.67305087772951" lon="8.474945262334755"><ele>167.28571428571428</ele><time>2026-04-20T11:16:21.999Z</time></trkpt><trkpt lat="44.67304052533422" lon="8.474855003002343"><ele>167.14285714285714</ele><time>2026-04-20T11:16:26.999Z</time></trkpt><trkpt lat="44.67304194430726" lon="8.474743464459241"><ele>167.0</ele><time>2026-04-20T11:16:32Z</time></trkpt><trkpt lat="44.673033851435754" lon="8.474641030873961"><ele>167.28571428571428</ele><time>2026-04-20T11:16:38Z</time></trkpt><trkpt lat="44.6730257084801" lon="8.474543145570166"><ele>167.57142857142858</ele><time>2026-04-20T11:16:45Z</time></trkpt><trkpt lat="44.67298643025051" lon="8.474466856784273"><ele>167.85714285714286</ele><time>2026-04-20T11:16:51Z</time></trkpt><trkpt lat="44.67292815176206" lon="8.474426420222489"><ele>168.14285714285714</ele><time>2026-04-20T11:16:55Z</time></trkpt><trkpt lat="44.6728680324348" lon="8.47438957842098"><ele>168.42857142857142</ele><time>2026-04-20T11:16:59Z</time></trkpt><trkpt lat="44.67280939808454" lon="8.474353360405205"><ele>168.71428571428572</ele><time>2026-04-20T11:17:03Z</time></trkpt><trkpt lat="44.67274283262304" lon="8.474316687921638"><ele>169.0</ele><time>2026-04-20T11:17:08Z</time></trkpt><trkpt lat="44.67267973069579" lon="8.474292410445939"><ele>168.28571428571428</ele><time>2026-04-20T11:17:13Z</time></trkpt><trkpt lat="44.67266002406386" lon="8.474194811926541"><ele>167.57142857142856</ele><time>2026-04-20T11:17:19Z</time></trkpt><trkpt lat="44.67264914391011" lon="8.474090938437195"><ele>166.85714285714283</ele><time>2026-04-20T11:17:25Z</time></trkpt><trkpt lat="44.67259702513892" lon="8.474036791796856"><ele>166.14285714285714</ele><time>2026-04-20T11:17:32Z</time></trkpt><trkpt lat="44.67252727828972" lon="8.474010148850457"><ele>165.42857142857142</ele><time>2026-04-20T11:17:38Z</time></trkpt><trkpt lat="44.67248156359508" lon="8.473943807800572"><ele>164.7142857142857</ele><time>2026-04-20T11:17:45Z</time></trkpt><trkpt lat="44.67243275520948" lon="8.473881979776893"><ele>164.0</ele><time>2026-04-20T11:17:52Z</time></trkpt><trkpt lat="44.67238224580121" lon="8.473807295191397"><ele>164.16666666666666</ele><time>2026-04-20T11:18:01Z</time></trkpt><trkpt lat="44.67237687945317" lon="8.473681787632714"><ele>164.33333333333331</ele><time>2026-04-20T11:18:06Z</time></trkpt><trkpt lat="44.672425324920425" lon="8.473588507615487"><ele>164.5</ele><time>2026-04-20T11:18:10Z</time></trkpt><trkpt lat="44.67244604017825" lon="8.473481304718439"><ele>164.66666666666666</ele><time>2026-04-20T11:18:14Z</time></trkpt><trkpt lat="44.672480647423555" lon="8.473399799916258"><ele>164.83333333333334</ele><time>2026-04-20T11:18:19Z</time></trkpt><trkpt lat="44.67250330211383" lon="8.473297152999923"><ele>165.0</ele><time>2026-04-20T11:18:24Z</time></trkpt><trkpt lat="44.67261075964862" lon="8.473163926150358"><ele>165.0</ele><time>2026-04-20T11:18:31.999Z</time></trkpt><trkpt lat="44.67223699121844" lon="8.473326183295859"><ele>165.0</ele><time>2026-04-20T11:18:54.201Z</time></trkpt><trkpt lat="44.67220312023527" lon="8.472998533600688"><ele>165.0</ele><time>2026-04-20T11:19:03.999Z</time></trkpt><trkpt lat="44.672297297919" lon="8.473190760530098"><ele>165.0</ele><time>2026-04-20T11:19:05.999Z</time></trkpt><trkpt lat="44.67218395808731" lon="8.47316176934799"><ele>165.0</ele><time>2026-04-20T11:19:06.999Z</time></trkpt><trkpt lat="44.67208581649538" lon="8.47319787291061"><ele>165.0</ele><time>2026-04-20T11:19:07.999Z</time></trkpt><trkpt lat="44.6720906279109" lon="8.473089874670134"><ele>165.00000000000003</ele><time>2026-04-20T11:19:12Z</time></trkpt><trkpt lat="44.6721147037" lon="8.47299487990373"><ele>165.0</ele><time>2026-04-20T11:19:18Z</time></trkpt><trkpt lat="44.672115390873294" lon="8.472900288052507"><ele>165.0</ele><time>2026-04-20T11:19:22Z</time></trkpt><trkpt lat="44.67211827740514" lon="8.472790757280032"><ele>165.0</ele><time>2026-04-20T11:19:26Z</time></trkpt><trkpt lat="44.67211875994978" lon="8.472697081355333"><ele>165.0</ele><time>2026-04-20T11:19:30Z</time></trkpt><trkpt lat="44.67211090538974" lon="8.472597515722107"><ele>165.00000000000003</ele><time>2026-04-20T11:19:35Z</time></trkpt><trkpt lat="44.672109459690596" lon="8.472508307478769"><ele>165.0</ele><time>2026-04-20T11:19:39Z</time></trkpt><trkpt lat="44.67211942445202" lon="8.472399744895405"><ele>165.14285714285717</ele><time>2026-04-20T11:19:46Z</time></trkpt><trkpt lat="44.67212877261486" lon="8.472299346524464"><ele>165.28571428571428</ele><time>2026-04-20T11:19:51Z</time></trkpt><trkpt lat="44.672128632809546" lon="8.472199407968246"><ele>165.42857142857144</ele><time>2026-04-20T11:19:56Z</time></trkpt><trkpt lat="44.67213894727091" lon="8.472093492898075"><ele>165.57142857142858</ele><time>2026-04-20T11:20:02Z</time></trkpt><trkpt lat="44.672146752156" lon="8.471999721336573"><ele>165.71428571428572</ele><time>2026-04-20T11:20:07Z</time></trkpt><trkpt lat="44.672152331621305" lon="8.471907592773071"><ele>165.85714285714286</ele><time>2026-04-20T11:20:12Z</time></trkpt><trkpt lat="44.67214910466227" lon="8.471816762809699"><ele>166.0</ele><time>2026-04-20T11:20:17Z</time></trkpt><trkpt lat="44.67213738195048" lon="8.47171688977956"><ele>166.0</ele><time>2026-04-20T11:20:23Z</time></trkpt><trkpt lat="44.67211576837355" lon="8.471610008716729"><ele>166.0</ele><time>2026-04-20T11:20:29Z</time></trkpt><trkpt lat="44.672116709510874" lon="8.471517782820525"><ele>166.0</ele><time>2026-04-20T11:20:34Z</time></trkpt><trkpt lat="44.67213749362702" lon="8.471425581860355"><ele>166.0</ele><time>2026-04-20T11:20:40Z</time></trkpt><trkpt lat="44.6721526462403" lon="8.47132916558277"><ele>166.0</ele><time>2026-04-20T11:20:45Z</time></trkpt><trkpt lat="44.67215578834456" lon="8.471231661701832"><ele>166.0</ele><time>2026-04-20T11:20:50Z</time></trkpt><trkpt lat="44.67215109134219" lon="8.471134499302876"><ele>166.0</ele><time>2026-04-20T11:20:55Z</time></trkpt><trkpt lat="44.67210066528076" lon="8.471068744204175"><ele>166.0</ele><time>2026-04-20T11:21:03Z</time></trkpt><trkpt lat="44.67203037050001" lon="8.471102844554544"><ele>166.0</ele><time>2026-04-20T11:21:09Z</time></trkpt><trkpt lat="44.671959153102925" lon="8.471089686515967"><ele>166.0</ele><time>2026-04-20T11:21:14Z</time></trkpt><trkpt lat="44.67188536201166" lon="8.471099925870003"><ele>166.0</ele><time>2026-04-20T11:21:20Z</time></trkpt><trkpt lat="44.67181487234713" lon="8.471079790043573"><ele>166.0</ele><time>2026-04-20T11:21:25Z</time></trkpt><trkpt lat="44.671752665321556" lon="8.471112302251658"><ele>166.0</ele><time>2026-04-20T11:21:29Z</time></trkpt><trkpt lat="44.671713116503874" lon="8.471185211855161"><ele>166.0</ele><time>2026-04-20T11:21:34Z</time></trkpt><trkpt lat="44.67165771732441" lon="8.471261665447816"><ele>166.0</ele><time>2026-04-20T11:21:41Z</time></trkpt><trkpt lat="44.671591814892885" lon="8.47126168735092"><ele>166.0</ele><time>2026-04-20T11:21:48Z</time></trkpt><trkpt lat="44.67153907466547" lon="8.471201690174146"><ele>166.0</ele><time>2026-04-20T11:21:54Z</time></trkpt><trkpt lat="44.67147644707719" lon="8.471215012016495"><ele>166.0</ele><time>2026-04-20T11:21:58Z</time></trkpt><trkpt lat="44.671412676747266" lon="8.471214554345979"><ele>166.0</ele><time>2026-04-20T11:22:03Z</time></trkpt><trkpt lat="44.67134839616046" lon="8.471226127681069"><ele>166.0</ele><time>2026-04-20T11:22:08Z</time></trkpt><trkpt lat="44.67128680710071" lon="8.471254818828186"><ele>166.0</ele><time>2026-04-20T11:22:13Z</time></trkpt><trkpt lat="44.671211528547865" lon="8.471285435096165"><ele>165.7142857142857</ele><time>2026-04-20T11:22:19Z</time></trkpt><trkpt lat="44.67114253272778" lon="8.471287935300223"><ele>165.42857142857144</ele><time>2026-04-20T11:22:24Z</time></trkpt><trkpt lat="44.67106569251707" lon="8.471269708360904"><ele>165.14285714285714</ele><time>2026-04-20T11:22:29Z</time></trkpt><trkpt lat="44.670996744530356" lon="8.471258310352734"><ele>164.85714285714283</ele><time>2026-04-20T11:22:34Z</time></trkpt><trkpt lat="44.6709247150226" lon="8.471250022736116"><ele>164.57142857142856</ele><time>2026-04-20T11:22:40Z</time></trkpt><trkpt lat="44.67084933273349" lon="8.471250245678725"><ele>164.28571428571428</ele><time>2026-04-20T11:22:46Z</time></trkpt><trkpt lat="44.67078782115592" lon="8.471220815510929"><ele>164.0</ele><time>2026-04-20T11:22:51Z</time></trkpt><trkpt lat="44.67071100830496" lon="8.471208218923879"><ele>163.7142857142857</ele><time>2026-04-20T11:22:57Z</time></trkpt><trkpt lat="44.67064010935666" lon="8.471210257501479"><ele>163.42857142857142</ele><time>2026-04-20T11:23:03Z</time></trkpt><trkpt lat="44.67055482669957" lon="8.471210644548423"><ele>163.14285714285714</ele><time>2026-04-20T11:23:09Z</time></trkpt><trkpt lat="44.67047554869143" lon="8.471224746394972"><ele>162.85714285714283</ele><time>2026-04-20T11:23:13.999Z</time></trkpt><trkpt lat="44.67040647968843" lon="8.471229525023274"><ele>162.57142857142856</ele><time>2026-04-20T11:23:19.999Z</time></trkpt><trkpt lat="44.67034343940521" lon="8.471241972618268"><ele>162.28571428571428</ele><time>2026-04-20T11:23:24Z</time></trkpt><trkpt lat="44.67026717965858" lon="8.471231217710445"><ele>162.0</ele><time>2026-04-20T11:23:30Z</time></trkpt><trkpt lat="44.67019779613925" lon="8.471219142387058"><ele>162.57142857142858</ele><time>2026-04-20T11:23:36Z</time></trkpt><trkpt lat="44.670129859478564" lon="8.471211769061401"><ele>163.14285714285714</ele><time>2026-04-20T11:23:42Z</time></trkpt><trkpt lat="44.67006567910628" lon="8.471178533008914"><ele>163.71428571428572</ele><time>2026-04-20T11:23:47Z</time></trkpt><trkpt lat="44.67000101472521" lon="8.47118233856276"><ele>164.28571428571428</ele><time>2026-04-20T11:23:51Z</time></trkpt><trkpt lat="44.66993504495409" lon="8.4711611459811"><ele>164.85714285714286</ele><time>2026-04-20T11:23:56Z</time></trkpt><trkpt lat="44.66986517900768" lon="8.471149641456586"><ele>165.42857142857142</ele><time>2026-04-20T11:24:02Z</time></trkpt><trkpt lat="44.669797883290734" lon="8.471147095242522"><ele>166.0</ele><time>2026-04-20T11:24:07Z</time></trkpt><trkpt lat="44.669739851352304" lon="8.471099907222811"><ele>166.0</ele><time>2026-04-20T11:24:15Z</time></trkpt><trkpt lat="44.6696948764512" lon="8.471020592205845"><ele>166.0</ele><time>2026-04-20T11:24:19Z</time></trkpt><trkpt lat="44.66962548531234" lon="8.470981714020457"><ele>166.0</ele><time>2026-04-20T11:24:25Z</time></trkpt><trkpt lat="44.66956356714108" lon="8.470956908387704"><ele>166.0</ele><time>2026-04-20T11:24:30Z</time></trkpt><trkpt lat="44.66948332445128" lon="8.470935470300587"><ele>166.0</ele><time>2026-04-20T11:24:36Z</time></trkpt><trkpt lat="44.66941965626606" lon="8.4709202134356"><ele>166.0</ele><time>2026-04-20T11:24:41Z</time></trkpt><trkpt lat="44.66935023877894" lon="8.470910198710515"><ele>166.0</ele><time>2026-04-20T11:24:47Z</time></trkpt><trkpt lat="44.66928573147467" lon="8.47089689475425"><ele>165.7142857142857</ele><time>2026-04-20T11:24:52Z</time></trkpt><trkpt lat="44.66922987125013" lon="8.47085230623396"><ele>165.42857142857144</ele><time>2026-04-20T11:24:58Z</time></trkpt><trkpt lat="44.6691651047443" lon="8.470829079972116"><ele>165.14285714285714</ele><time>2026-04-20T11:25:03Z</time></trkpt><trkpt lat="44.669098156223505" lon="8.470818124999063"><ele>164.85714285714283</ele><time>2026-04-20T11:25:07.999Z</time></trkpt><trkpt lat="44.669026583803834" lon="8.470811051976915"><ele>164.57142857142856</ele><time>2026-04-20T11:25:12.999Z</time></trkpt><trkpt lat="44.66896341798547" lon="8.470860421627677"><ele>164.28571428571428</ele><time>2026-04-20T11:25:18.999Z</time></trkpt><trkpt lat="44.668896921258366" lon="8.470877009195291"><ele>164.0</ele><time>2026-04-20T11:25:23.999Z</time></trkpt><trkpt lat="44.668829429900164" lon="8.470883947347223"><ele>163.99999999999997</ele><time>2026-04-20T11:25:29Z</time></trkpt><trkpt lat="44.668730562945626" lon="8.470885445957444"><ele>164.0</ele><time>2026-04-20T11:25:36Z</time></trkpt><trkpt lat="44.66866383393975" lon="8.470877445913773"><ele>164.0</ele><time>2026-04-20T11:25:42Z</time></trkpt><trkpt lat="44.66859628576461" lon="8.47087837260373"><ele>164.0</ele><time>2026-04-20T11:25:48Z</time></trkpt><trkpt lat="44.66852242042046" lon="8.470880132394173"><ele>164.0</ele><time>2026-04-20T11:25:53Z</time></trkpt><trkpt lat="44.66845059883753" lon="8.470891976391682"><ele>163.99999999999997</ele><time>2026-04-20T11:25:59Z</time></trkpt><trkpt lat="44.66838708239823" lon="8.47087921661369"><ele>164.0</ele><time>2026-04-20T11:26:04Z</time></trkpt><trkpt lat="44.66832137454972" lon="8.470876020343107"><ele>163.85714285714283</ele><time>2026-04-20T11:26:09Z</time></trkpt><trkpt lat="44.66825193479259" lon="8.470857606578186"><ele>163.71428571428572</ele><time>2026-04-20T11:26:14Z</time></trkpt><trkpt lat="44.66817963401935" lon="8.470862825488714"><ele>163.57142857142856</ele><time>2026-04-20T11:26:20Z</time></trkpt><trkpt lat="44.66811669451587" lon="8.47086581177848"><ele>163.42857142857142</ele><time>2026-04-20T11:26:25Z</time></trkpt><trkpt lat="44.668038084638965" lon="8.470864091927345"><ele>163.28571428571428</ele><time>2026-04-20T11:26:31Z</time></trkpt><trkpt lat="44.66796850399282" lon="8.470855875341005"><ele>163.14285714285714</ele><time>2026-04-20T11:26:37Z</time></trkpt><trkpt lat="44.66790481440989" lon="8.470852693296342"><ele>163.0</ele><time>2026-04-20T11:26:42Z</time></trkpt><trkpt lat="44.6678390577576" lon="8.470851214352933"><ele>162.2857142857143</ele><time>2026-04-20T11:26:47Z</time></trkpt><trkpt lat="44.667766559533476" lon="8.47085118628226"><ele>161.57142857142856</ele><time>2026-04-20T11:26:53Z</time></trkpt><trkpt lat="44.66769045115207" lon="8.470845853106304"><ele>160.85714285714286</ele><time>2026-04-20T11:26:59Z</time></trkpt><trkpt lat="44.66762636236362" lon="8.47081394856169"><ele>160.14285714285717</ele><time>2026-04-20T11:27:04.999Z</time></trkpt><trkpt lat="44.6676095147597" lon="8.470711542660652"><ele>159.42857142857144</ele><time>2026-04-20T11:27:10.999Z</time></trkpt><trkpt lat="44.667582586425276" lon="8.470629029772"><ele>158.71428571428572</ele><time>2026-04-20T11:27:15.999Z</time></trkpt><trkpt lat="44.6675317689843" lon="8.470569529047221"><ele>158.0</ele><time>2026-04-20T11:27:20.999Z</time></trkpt><trkpt lat="44.667466971068855" lon="8.470542369860947"><ele>158.00000000000003</ele><time>2026-04-20T11:27:25.999Z</time></trkpt><trkpt lat="44.66739758990735" lon="8.470540347230063"><ele>158.0</ele><time>2026-04-20T11:27:30.999Z</time></trkpt><trkpt lat="44.66733298145904" lon="8.47051894270621"><ele>158.0</ele><time>2026-04-20T11:27:37Z</time></trkpt><trkpt lat="44.66729095808437" lon="8.470438949947182"><ele>158.0</ele><time>2026-04-20T11:27:43Z</time></trkpt><trkpt lat="44.66728463409816" lon="8.470345989690381"><ele>158.0</ele><time>2026-04-20T11:27:50Z</time></trkpt><trkpt lat="44.66729659374365" lon="8.470254900848467"><ele>158.00000000000003</ele><time>2026-04-20T11:27:56Z</time></trkpt><trkpt lat="44.66733140633994" lon="8.470167356813615"><ele>158.0</ele><time>2026-04-20T11:28:01Z</time></trkpt><trkpt lat="44.66733392419794" lon="8.470071011182618"><ele>157.85714285714286</ele><time>2026-04-20T11:28:07Z</time></trkpt><trkpt lat="44.667326923078114" lon="8.46997127082191"><ele>157.71428571428572</ele><time>2026-04-20T11:28:13Z</time></trkpt><trkpt lat="44.667326737529045" lon="8.469876857387849"><ele>157.57142857142856</ele><time>2026-04-20T11:28:18Z</time></trkpt><trkpt lat="44.66734352233788" lon="8.469790337555649"><ele>157.42857142857144</ele><time>2026-04-20T11:28:24Z</time></trkpt><trkpt lat="44.667376199070276" lon="8.469705902676413"><ele>157.28571428571428</ele><time>2026-04-20T11:28:29Z</time></trkpt><trkpt lat="44.667389976821106" lon="8.46960120829004"><ele>157.14285714285714</ele><time>2026-04-20T11:28:34Z</time></trkpt><trkpt lat="44.667393980084924" lon="8.469501561284694"><ele>157.0</ele><time>2026-04-20T11:28:40Z</time></trkpt><trkpt lat="44.66742158881649" lon="8.469394863282451"><ele>156.7142857142857</ele><time>2026-04-20T11:28:47Z</time></trkpt><trkpt lat="44.6674376260339" lon="8.469303320231068"><ele>156.42857142857142</ele><time>2026-04-20T11:28:54Z</time></trkpt><trkpt lat="44.667458777927436" lon="8.469214958182445"><ele>156.14285714285714</ele><time>2026-04-20T11:29:01.999Z</time></trkpt><trkpt lat="44.66745685505713" lon="8.469123810191144"><ele>155.85714285714283</ele><time>2026-04-20T11:29:06.999Z</time></trkpt><trkpt lat="44.66750048588675" lon="8.469044265268803"><ele>155.57142857142856</ele><time>2026-04-20T11:29:10.999Z</time></trkpt><trkpt lat="44.66754752618297" lon="8.468980544807767"><ele>155.28571428571428</ele><time>2026-04-20T11:29:14.999Z</time></trkpt><trkpt lat="44.66758916301244" lon="8.468901852637988"><ele>155.0</ele><time>2026-04-20T11:29:19.999Z</time></trkpt><trkpt lat="44.667643117492595" lon="8.468847925413117"><ele>155.0</ele><time>2026-04-20T11:29:25.999Z</time></trkpt><trkpt lat="44.66770328213125" lon="8.468819329946117"><ele>155.0</ele><time>2026-04-20T11:29:31.999Z</time></trkpt><trkpt lat="44.66777048566189" lon="8.4688227889683"><ele>155.0</ele><time>2026-04-20T11:29:39Z</time></trkpt><trkpt lat="44.667761174330366" lon="8.468733080459705"><ele>155.0</ele><time>2026-04-20T11:29:47Z</time></trkpt><trkpt lat="44.66776045402406" lon="8.468636338350933"><ele>155.0</ele><time>2026-04-20T11:29:50Z</time></trkpt><trkpt lat="44.667747074115795" lon="8.468541113319032"><ele>155.0</ele><time>2026-04-20T11:29:54Z</time></trkpt><trkpt lat="44.66774708061657" lon="8.468447777398652"><ele>155.0</ele><time>2026-04-20T11:29:58Z</time></trkpt><trkpt lat="44.667736022043556" lon="8.468347300715342"><ele>154.66666666666666</ele><time>2026-04-20T11:30:03Z</time></trkpt><trkpt lat="44.667745585827305" lon="8.468224487669278"><ele>154.33333333333331</ele><time>2026-04-20T11:30:09Z</time></trkpt><trkpt lat="44.667772959622816" lon="8.468134180965698"><ele>154.0</ele><time>2026-04-20T11:30:15Z</time></trkpt><trkpt lat="44.667805130473084" lon="8.46804529838339"><ele>153.66666666666666</ele><time>2026-04-20T11:30:21Z</time></trkpt><trkpt lat="44.66781743385542" lon="8.467937397939465"><ele>153.33333333333334</ele><time>2026-04-20T11:30:27Z</time></trkpt><trkpt lat="44.66784988597099" lon="8.467845662625761"><ele>153.0</ele><time>2026-04-20T11:30:33Z</time></trkpt><trkpt lat="44.66787183951509" lon="8.467742847257412"><ele>152.28571428571428</ele><time>2026-04-20T11:30:40Z</time></trkpt><trkpt lat="44.66790416404273" lon="8.46765224303546"><ele>151.57142857142858</ele><time>2026-04-20T11:30:46Z</time></trkpt><trkpt lat="44.66792857811598" lon="8.467549799663738"><ele>150.85714285714286</ele><time>2026-04-20T11:30:52Z</time></trkpt><trkpt lat="44.66798564945442" lon="8.46747669939351"><ele>150.14285714285714</ele><time>2026-04-20T11:30:58Z</time></trkpt><trkpt lat="44.66806190473485" lon="8.467459120507138"><ele>149.42857142857142</ele><time>2026-04-20T11:31:03Z</time></trkpt><trkpt lat="44.668139056073116" lon="8.46745202765274"><ele>148.71428571428572</ele><time>2026-04-20T11:31:08.999Z</time></trkpt><trkpt lat="44.66820477362961" lon="8.467436394528006"><ele>148.0</ele><time>2026-04-20T11:31:13.999Z</time></trkpt><trkpt lat="44.668266457475305" lon="8.467407731409455"><ele>148.0</ele><time>2026-04-20T11:31:19.999Z</time></trkpt><trkpt lat="44.66833890257319" lon="8.46740557383461"><ele>148.0</ele><time>2026-04-20T11:31:25.999Z</time></trkpt><trkpt lat="44.668399259568744" lon="8.46737332657254"><ele>148.0</ele><time>2026-04-20T11:31:30.999Z</time></trkpt><trkpt lat="44.66847094480231" lon="8.467371617425117"><ele>148.0</ele><time>2026-04-20T11:31:36.999Z</time></trkpt><trkpt lat="44.66853490232367" lon="8.467356043555323"><ele>148.0</ele><time>2026-04-20T11:31:41.999Z</time></trkpt><trkpt lat="44.66859820698263" lon="8.46733435946317"><ele>148.0</ele><time>2026-04-20T11:31:47Z</time></trkpt><trkpt lat="44.668666722120854" lon="8.467302753835156"><ele>148.0</ele><time>2026-04-20T11:31:52Z</time></trkpt><trkpt lat="44.6687429697709" lon="8.467283561923226"><ele>148.28571428571428</ele><time>2026-04-20T11:31:57Z</time></trkpt><trkpt lat="44.66881727766215" lon="8.467262609166939"><ele>148.57142857142856</ele><time>2026-04-20T11:32:03Z</time></trkpt><trkpt lat="44.66888436429992" lon="8.467240269290894"><ele>148.85714285714283</ele><time>2026-04-20T11:32:09Z</time></trkpt><trkpt lat="44.66894828827706" lon="8.467221706542079"><ele>149.14285714285714</ele><time>2026-04-20T11:32:14Z</time></trkpt><trkpt lat="44.66902754193529" lon="8.467205830873505"><ele>149.42857142857142</ele><time>2026-04-20T11:32:20Z</time></trkpt><trkpt lat="44.66909681545825" lon="8.467192375766428"><ele>149.7142857142857</ele><time>2026-04-20T11:32:26Z</time></trkpt><trkpt lat="44.669162844053524" lon="8.4671597947493"><ele>150.0</ele><time>2026-04-20T11:32:32Z</time></trkpt><trkpt lat="44.66921857628028" lon="8.467098821764505"><ele>149.99999999999997</ele><time>2026-04-20T11:32:38Z</time></trkpt><trkpt lat="44.66923875647432" lon="8.467005744813857"><ele>150.0</ele><time>2026-04-20T11:32:44Z</time></trkpt><trkpt lat="44.66923278666998" lon="8.46691013768836"><ele>150.0</ele><time>2026-04-20T11:32:48.999Z</time></trkpt><trkpt lat="44.66923075010638" lon="8.466802853571401"><ele>150.0</ele><time>2026-04-20T11:32:55.999Z</time></trkpt><trkpt lat="44.66923533680041" lon="8.466711073036228"><ele>150.0</ele><time>2026-04-20T11:33:00.999Z</time></trkpt><trkpt lat="44.669253592380564" lon="8.466625988110591"><ele>149.99999999999997</ele><time>2026-04-20T11:33:05.999Z</time></trkpt><trkpt lat="44.6692823223122" lon="8.466539800108398"><ele>150.0</ele><time>2026-04-20T11:33:10.999Z</time></trkpt><trkpt lat="44.66933783799602" lon="8.466490331664211"><ele>149.99999999999997</ele><time>2026-04-20T11:33:16.999Z</time></trkpt><trkpt lat="44.66939761232828" lon="8.466455156371877"><ele>150.0</ele><time>2026-04-20T11:33:22.999Z</time></trkpt><trkpt lat="44.66946322292773" lon="8.466450498398299"><ele>150.0</ele><time>2026-04-20T11:33:28.999Z</time></trkpt><trkpt lat="44.66952973491266" lon="8.46641035305765"><ele>150.0</ele><time>2026-04-20T11:33:33.999Z</time></trkpt><trkpt lat="44.66959451195791" lon="8.466363417882485"><ele>150.0</ele><time>2026-04-20T11:33:38.999Z</time></trkpt><trkpt lat="44.669655599724315" lon="8.466321483403782"><ele>149.99999999999997</ele><time>2026-04-20T11:33:44.999Z</time></trkpt><trkpt lat="44.669720524929865" lon="8.466301673047521"><ele>150.0</ele><time>2026-04-20T11:33:50Z</time></trkpt><trkpt lat="44.6697824991957" lon="8.466280169544328"><ele>150.14285714285714</ele><time>2026-04-20T11:33:55Z</time></trkpt><trkpt lat="44.66985605212396" lon="8.466262827025094"><ele>150.28571428571428</ele><time>2026-04-20T11:34:01Z</time></trkpt><trkpt lat="44.669922429280604" lon="8.466217886066419"><ele>150.42857142857144</ele><time>2026-04-20T11:34:07Z</time></trkpt><trkpt lat="44.669994830752266" lon="8.466209922932766"><ele>150.57142857142856</ele><time>2026-04-20T11:34:12Z</time></trkpt><trkpt lat="44.67006129757792" lon="8.466200097571"><ele>150.71428571428572</ele><time>2026-04-20T11:34:17Z</time></trkpt><trkpt lat="44.670131092957504" lon="8.466155293086988"><ele>150.85714285714286</ele><time>2026-04-20T11:34:23Z</time></trkpt><trkpt lat="44.670187961364945" lon="8.466114519432296"><ele>151.0</ele><time>2026-04-20T11:34:28Z</time></trkpt><trkpt lat="44.67025109223559" lon="8.466117007132821"><ele>151.71428571428572</ele><time>2026-04-20T11:34:32Z</time></trkpt><trkpt lat="44.67031073836258" lon="8.466065500920935"><ele>152.42857142857144</ele><time>2026-04-20T11:34:40Z</time></trkpt><trkpt lat="44.670378255142154" lon="8.466022020465921"><ele>153.14285714285717</ele><time>2026-04-20T11:34:45Z</time></trkpt><trkpt lat="44.67044955862868" lon="8.465992461400482"><ele>153.85714285714286</ele><time>2026-04-20T11:34:50Z</time></trkpt><trkpt lat="44.67052680211881" lon="8.465993301530785"><ele>154.57142857142856</ele><time>2026-04-20T11:34:55Z</time></trkpt><trkpt lat="44.670581590233674" lon="8.465947056386236"><ele>155.2857142857143</ele><time>2026-04-20T11:35:00Z</time></trkpt><trkpt lat="44.6706483454394" lon="8.465948017898283"><ele>156.0</ele><time>2026-04-20T11:35:05Z</time></trkpt><trkpt lat="44.67072032684003" lon="8.465918124047109"><ele>156.0</ele><time>2026-04-20T11:35:10.999Z</time></trkpt><trkpt lat="44.67078072680959" lon="8.465859297886317"><ele>156.0</ele><time>2026-04-20T11:35:15.999Z</time></trkpt><trkpt lat="44.6708579586626" lon="8.4658572134479"><ele>156.0</ele><time>2026-04-20T11:35:20.999Z</time></trkpt><trkpt lat="44.67092530871917" lon="8.465846267048006"><ele>156.0</ele><time>2026-04-20T11:35:25.999Z</time></trkpt><trkpt lat="44.67099203523808" lon="8.465827167521486"><ele>156.0</ele><time>2026-04-20T11:35:32.999Z</time></trkpt><trkpt lat="44.6710584871284" lon="8.465814767836969"><ele>156.0</ele><time>2026-04-20T11:35:38.999Z</time></trkpt><trkpt lat="44.67113935896559" lon="8.465809545453968"><ele>156.0</ele><time>2026-04-20T11:35:43.999Z</time></trkpt><trkpt lat="44.67120776519593" lon="8.465750598594157"><ele>156.2857142857143</ele><time>2026-04-20T11:35:48.999Z</time></trkpt><trkpt lat="44.6712820298828" lon="8.465752400760625"><ele>156.57142857142856</ele><time>2026-04-20T11:35:53.999Z</time></trkpt><trkpt lat="44.67135872906131" lon="8.46575414649835"><ele>156.85714285714286</ele><time>2026-04-20T11:36:00Z</time></trkpt><trkpt lat="44.671422350928175" lon="8.465754903933028"><ele>157.14285714285717</ele><time>2026-04-20T11:36:05Z</time></trkpt><trkpt lat="44.671484811599775" lon="8.465767221881585"><ele>157.42857142857144</ele><time>2026-04-20T11:36:11Z</time></trkpt><trkpt lat="44.671560407885046" lon="8.465781165871576"><ele>157.71428571428572</ele><time>2026-04-20T11:36:18Z</time></trkpt><trkpt lat="44.671631698616345" lon="8.465780486751694"><ele>158.0</ele><time>2026-04-20T11:36:23Z</time></trkpt><trkpt lat="44.67170011622536" lon="8.465750944249834"><ele>158.00000000000003</ele><time>2026-04-20T11:36:27Z</time></trkpt><trkpt lat="44.671767374320304" lon="8.465708551260185"><ele>158.0</ele><time>2026-04-20T11:36:32Z</time></trkpt><trkpt lat="44.67182010185675" lon="8.465629660279516"><ele>158.0</ele><time>2026-04-20T11:36:38Z</time></trkpt><trkpt lat="44.671862330316806" lon="8.465551940898925"><ele>158.0</ele><time>2026-04-20T11:36:44Z</time></trkpt><trkpt lat="44.6719004486584" lon="8.465481080311962"><ele>158.0</ele><time>2026-04-20T11:36:49Z</time></trkpt><trkpt lat="44.67193813755575" lon="8.465404977938547"><ele>158.00000000000003</ele><time>2026-04-20T11:36:54Z</time></trkpt><trkpt lat="44.67197704804453" lon="8.465312597477325"><ele>158.0</ele><time>2026-04-20T11:37:00Z</time></trkpt><trkpt lat="44.67203006178056" lon="8.465246670249114"><ele>157.71428571428572</ele><time>2026-04-20T11:37:06Z</time></trkpt><trkpt lat="44.67207071204297" lon="8.465165309603488"><ele>157.42857142857144</ele><time>2026-04-20T11:37:12Z</time></trkpt><trkpt lat="44.67210446357428" lon="8.465078399665753"><ele>157.14285714285717</ele><time>2026-04-20T11:37:18Z</time></trkpt><trkpt lat="44.67214446128128" lon="8.465006763060426"><ele>156.85714285714286</ele><time>2026-04-20T11:37:23Z</time></trkpt><trkpt lat="44.672192290591596" lon="8.46494349897063"><ele>156.57142857142856</ele><time>2026-04-20T11:37:28Z</time></trkpt><trkpt lat="44.672242676763055" lon="8.464867601154872"><ele>156.2857142857143</ele><time>2026-04-20T11:37:35Z</time></trkpt><trkpt lat="44.67228597088021" lon="8.464786151739384"><ele>156.0</ele><time>2026-04-20T11:37:40.999Z</time></trkpt><trkpt lat="44.67233319224977" lon="8.464720833472043"><ele>156.0</ele><time>2026-04-20T11:37:48.999Z</time></trkpt><trkpt lat="44.67240678569671" lon="8.464721475273619"><ele>156.0</ele><time>2026-04-20T11:37:53.999Z</time></trkpt><trkpt lat="44.67247803596445" lon="8.46471572909994"><ele>156.0</ele><time>2026-04-20T11:37:57.999Z</time></trkpt><trkpt lat="44.67255511906272" lon="8.464704721382887"><ele>156.0</ele><time>2026-04-20T11:38:03Z</time></trkpt><trkpt lat="44.672617131753896" lon="8.464730847771508"><ele>156.0</ele><time>2026-04-20T11:38:08Z</time></trkpt><trkpt lat="44.67266778601179" lon="8.464791651657508"><ele>156.0</ele><time>2026-04-20T11:38:12Z</time></trkpt><trkpt lat="44.67272347993475" lon="8.464859405215828"><ele>156.0</ele><time>2026-04-20T11:38:17Z</time></trkpt><trkpt lat="44.672792734922574" lon="8.464898550663454"><ele>156.5</ele><time>2026-04-20T11:38:22Z</time></trkpt><trkpt lat="44.67284610724877" lon="8.464969477721962"><ele>157.0</ele><time>2026-04-20T11:38:27Z</time></trkpt><trkpt lat="44.672909241742644" lon="8.465027411428418"><ele>157.5</ele><time>2026-04-20T11:38:32Z</time></trkpt><trkpt lat="44.6729799092585" lon="8.46504478827734"><ele>158.0</ele><time>2026-04-20T11:38:39Z</time></trkpt><trkpt lat="44.673015496870256" lon="8.465135268587678"><ele>158.5</ele><time>2026-04-20T11:38:45Z</time></trkpt><trkpt lat="44.67308410168708" lon="8.465241481965606"><ele>159.0</ele><time>2026-04-20T11:38:52Z</time></trkpt><trkpt lat="44.673136928010706" lon="8.465298915437902"><ele>159.0</ele><time>2026-04-20T11:38:58Z</time></trkpt><trkpt lat="44.67320495359846" lon="8.465376584377607"><ele>159.0</ele><time>2026-04-20T11:39:05Z</time></trkpt><trkpt lat="44.67325694450089" lon="8.465438900446257"><ele>159.0</ele><time>2026-04-20T11:39:12Z</time></trkpt><trkpt lat="44.673328253712334" lon="8.465447027044938"><ele>159.0</ele><time>2026-04-20T11:39:17.999Z</time></trkpt><trkpt lat="44.67340203446544" lon="8.465469392110293"><ele>159.0</ele><time>2026-04-20T11:39:24.999Z</time></trkpt><trkpt lat="44.67347036029899" lon="8.465469262137756"><ele>159.0</ele><time>2026-04-20T11:39:30.999Z</time></trkpt><trkpt lat="44.6735402519624" lon="8.465484216342658"><ele>159.0</ele><time>2026-04-20T11:39:37.999Z</time></trkpt><trkpt lat="44.67360265607989" lon="8.465465840465855"><ele>159.85714285714286</ele><time>2026-04-20T11:39:42.999Z</time></trkpt><trkpt lat="44.67366940782948" lon="8.465487533748373"><ele>160.71428571428572</ele><time>2026-04-20T11:39:47.999Z</time></trkpt><trkpt lat="44.673715529867295" lon="8.465548257705775"><ele>161.57142857142858</ele><time>2026-04-20T11:39:51.999Z</time></trkpt><trkpt lat="44.67378081035208" lon="8.465580229980667"><ele>162.42857142857144</ele><time>2026-04-20T11:39:55.999Z</time></trkpt><trkpt lat="44.673860815769174" lon="8.46554096193028"><ele>163.28571428571428</ele><time>2026-04-20T11:40:01.999Z</time></trkpt><trkpt lat="44.6739287234695" lon="8.465523748866577"><ele>164.14285714285717</ele><time>2026-04-20T11:40:09Z</time></trkpt><trkpt lat="44.67399897937069" lon="8.46552890816522"><ele>165.0</ele><time>2026-04-20T11:40:14Z</time></trkpt><trkpt lat="44.67407215531684" lon="8.465523652574513"><ele>165.00000000000003</ele><time>2026-04-20T11:40:19Z</time></trkpt><trkpt lat="44.67412863247307" lon="8.465581083565937"><ele>165.0</ele><time>2026-04-20T11:40:23Z</time></trkpt><trkpt lat="44.67418903283445" lon="8.465547451778402"><ele>165.0</ele><time>2026-04-20T11:40:27Z</time></trkpt><trkpt lat="44.67425042502416" lon="8.465504926168043"><ele>165.0</ele><time>2026-04-20T11:40:31Z</time></trkpt><trkpt lat="44.6743267021054" lon="8.465526073485954"><ele>165.0</ele><time>2026-04-20T11:40:38Z</time></trkpt><trkpt lat="44.67439175274773" lon="8.465576247901925"><ele>165.00000000000003</ele><time>2026-04-20T11:40:46Z</time></trkpt><trkpt lat="44.67446327682579" lon="8.465537295075789"><ele>165.0</ele><time>2026-04-20T11:40:50Z</time></trkpt><trkpt lat="44.67454075544759" lon="8.465535861473159"><ele>164.85714285714286</ele><time>2026-04-20T11:40:55Z</time></trkpt><trkpt lat="44.6745973216909" lon="8.465599327960854"><ele>164.71428571428572</ele><time>2026-04-20T11:41:01Z</time></trkpt><trkpt lat="44.67466405633677" lon="8.465637219529155"><ele>164.57142857142856</ele><time>2026-04-20T11:41:07Z</time></trkpt><trkpt lat="44.67473423715705" lon="8.465629975550874"><ele>164.42857142857144</ele><time>2026-04-20T11:41:11Z</time></trkpt><trkpt lat="44.67480266767422" lon="8.465617480284164"><ele>164.28571428571428</ele><time>2026-04-20T11:41:15Z</time></trkpt><trkpt lat="44.674856451518906" lon="8.465570806635029"><ele>164.14285714285714</ele><time>2026-04-20T11:41:20Z</time></trkpt><trkpt lat="44.674920173480324" lon="8.465544249081598"><ele>164.0</ele><time>2026-04-20T11:41:25Z</time></trkpt><trkpt lat="44.674987748849894" lon="8.465544175882993"><ele>164.0</ele><time>2026-04-20T11:41:30Z</time></trkpt><trkpt lat="44.675058306607774" lon="8.465578238975834"><ele>164.0</ele><time>2026-04-20T11:41:37Z</time></trkpt><trkpt lat="44.6751192721603" lon="8.465652799696564"><ele>164.0</ele><time>2026-04-20T11:41:42Z</time></trkpt><trkpt lat="44.675185564584034" lon="8.46567144866799"><ele>164.0</ele><time>2026-04-20T11:41:49Z</time></trkpt><trkpt lat="44.6752646174493" lon="8.465636032050154"><ele>164.0</ele><time>2026-04-20T11:41:53.999Z</time></trkpt><trkpt lat="44.67532559549569" lon="8.465602415537768"><ele>164.0</ele><time>2026-04-20T11:42:00.999Z</time></trkpt><trkpt lat="44.67540555752623" lon="8.465626404287999"><ele>163.85714285714283</ele><time>2026-04-20T11:42:06.999Z</time></trkpt><trkpt lat="44.67547713124467" lon="8.465630252073275"><ele>163.71428571428572</ele><time>2026-04-20T11:42:11.999Z</time></trkpt><trkpt lat="44.67553700432199" lon="8.465579769607295"><ele>163.57142857142856</ele><time>2026-04-20T11:42:17Z</time></trkpt><trkpt lat="44.675597042369745" lon="8.465521147688667"><ele>163.42857142857142</ele><time>2026-04-20T11:42:22Z</time></trkpt><trkpt lat="44.67566126057818" lon="8.465554180871656"><ele>163.28571428571428</ele><time>2026-04-20T11:42:27Z</time></trkpt><trkpt lat="44.6757342455161" lon="8.465583199331219"><ele>163.14285714285714</ele><time>2026-04-20T11:42:32Z</time></trkpt><trkpt lat="44.67579783056581" lon="8.465602006610498"><ele>163.0</ele><time>2026-04-20T11:42:37Z</time></trkpt><trkpt lat="44.67586844012023" lon="8.465611491841926"><ele>163.0</ele><time>2026-04-20T11:42:43Z</time></trkpt><trkpt lat="44.67593245549277" lon="8.465609966158665"><ele>163.0</ele><time>2026-04-20T11:42:48Z</time></trkpt><trkpt lat="44.676002230756445" lon="8.465642923727795"><ele>163.0</ele><time>2026-04-20T11:42:54Z</time></trkpt><trkpt lat="44.6760745637249" lon="8.46566392814065"><ele>163.0</ele><time>2026-04-20T11:42:59Z</time></trkpt><trkpt lat="44.676133656836804" lon="8.465697352615146"><ele>163.0</ele><time>2026-04-20T11:43:04Z</time></trkpt><trkpt lat="44.676204520665266" lon="8.465721830818543"><ele>163.0</ele><time>2026-04-20T11:43:11Z</time></trkpt><trkpt lat="44.67627178380069" lon="8.46573642954877"><ele>163.0</ele><time>2026-04-20T11:43:16Z</time></trkpt><trkpt lat="44.67634570341501" lon="8.465719524550769"><ele>163.0</ele><time>2026-04-20T11:43:21Z</time></trkpt><trkpt lat="44.67640932331298" lon="8.465725673729231"><ele>163.0</ele><time>2026-04-20T11:43:25Z</time></trkpt><trkpt lat="44.67643749611296" lon="8.465624095558445"><ele>163.0</ele><time>2026-04-20T11:43:30Z</time></trkpt><trkpt lat="44.676499579823314" lon="8.465586551395623"><ele>163.0</ele><time>2026-04-20T11:43:37Z</time></trkpt><trkpt lat="44.676562227685956" lon="8.465550432929525"><ele>163.0</ele><time>2026-04-20T11:43:42Z</time></trkpt><trkpt lat="44.67656260926256" lon="8.465461847448376"><ele>163.0</ele><time>2026-04-20T11:43:49Z</time></trkpt><trkpt lat="44.67653496225849" lon="8.46536577019393"><ele>163.0</ele><time>2026-04-20T11:43:54Z</time></trkpt><trkpt lat="44.676539951930074" lon="8.465268794795993"><ele>163.0</ele><time>2026-04-20T11:43:58Z</time></trkpt><trkpt lat="44.676560952413546" lon="8.46517752723801"><ele>163.0</ele><time>2026-04-20T11:44:03Z</time></trkpt><trkpt lat="44.67657743158486" lon="8.465085021822802"><ele>163.0</ele><time>2026-04-20T11:44:08Z</time></trkpt><trkpt lat="44.67655632483151" lon="8.46499506417348"><ele>163.0</ele><time>2026-04-20T11:44:14Z</time></trkpt><trkpt lat="44.676574502524346" lon="8.464894694666606"><ele>163.0</ele><time>2026-04-20T11:44:19Z</time></trkpt><trkpt lat="44.67655195349581" lon="8.464811580670737"><ele>163.0</ele><time>2026-04-20T11:44:23Z</time></trkpt><trkpt lat="44.676506255321634" lon="8.464749258365941"><ele>163.0</ele><time>2026-04-20T11:44:28Z</time></trkpt><trkpt lat="44.67651574440468" lon="8.464646900966596"><ele>163.0</ele><time>2026-04-20T11:44:33Z</time></trkpt><trkpt lat="44.676550820061486" lon="8.464554586473543"><ele>163.0</ele><time>2026-04-20T11:44:39Z</time></trkpt><trkpt lat="44.676615719524214" lon="8.464519033451042"><ele>163.0</ele><time>2026-04-20T11:44:46Z</time></trkpt><trkpt lat="44.67668242891231" lon="8.464499851172016"><ele>163.0</ele><time>2026-04-20T11:44:51Z</time></trkpt><trkpt lat="44.67675590512715" lon="8.464508699748063"><ele>163.0</ele><time>2026-04-20T11:44:56Z</time></trkpt><trkpt lat="44.676842387023974" lon="8.464495275749426"><ele>163.0</ele><time>2026-04-20T11:45:02Z</time></trkpt><trkpt lat="44.67691134830159" lon="8.464450702292819"><ele>163.0</ele><time>2026-04-20T11:45:09Z</time></trkpt><trkpt lat="44.67697434236032" lon="8.464431619665165"><ele>163.0</ele><time>2026-04-20T11:45:14Z</time></trkpt><trkpt lat="44.6770499615616" lon="8.464448417622446"><ele>163.0</ele><time>2026-04-20T11:45:20Z</time></trkpt><trkpt lat="44.67712002133841" lon="8.464425565851835"><ele>163.0</ele><time>2026-04-20T11:45:25Z</time></trkpt><trkpt lat="44.677189121324524" lon="8.464405614233739"><ele>163.0</ele><time>2026-04-20T11:45:30Z</time></trkpt><trkpt lat="44.67725204028798" lon="8.464430640677934"><ele>163.0</ele><time>2026-04-20T11:45:35Z</time></trkpt><trkpt lat="44.67731998234534" lon="8.464455853926873"><ele>163.0</ele><time>2026-04-20T11:45:40Z</time></trkpt><trkpt lat="44.677380755435316" lon="8.464489100033141"><ele>163.0</ele><time>2026-04-20T11:45:44Z</time></trkpt><trkpt lat="44.67745286983454" lon="8.464518260417833"><ele>163.0</ele><time>2026-04-20T11:45:48Z</time></trkpt><trkpt lat="44.67752517641748" lon="8.46452553895019"><ele>163.0</ele><time>2026-04-20T11:45:53Z</time></trkpt><trkpt lat="44.677571022895954" lon="8.46460354165605"><ele>163.0</ele><time>2026-04-20T11:46:01Z</time></trkpt><trkpt lat="44.67757056829321" lon="8.46470464116926"><ele>163.0</ele><time>2026-04-20T11:46:06Z</time></trkpt><trkpt lat="44.67755912577749" lon="8.46480662340772"><ele>163.0</ele><time>2026-04-20T11:46:11Z</time></trkpt><trkpt lat="44.6775313040115" lon="8.46489292730738"><ele>163.0</ele><time>2026-04-20T11:46:16Z</time></trkpt><trkpt lat="44.67747717719558" lon="8.464958674389926"><ele>163.0</ele><time>2026-04-20T11:46:22Z</time></trkpt><trkpt lat="44.67735183515376" lon="8.465042978026048"><ele>162.85714285714286</ele><time>2026-04-20T11:48:26Z</time></trkpt><trkpt lat="44.67731883732697" lon="8.46512934187643"><ele>162.7142857142857</ele><time>2026-04-20T11:48:31Z</time></trkpt><trkpt lat="44.67727950345928" lon="8.46521475369032"><ele>162.57142857142856</ele><time>2026-04-20T11:48:36Z</time></trkpt><trkpt lat="44.677237542636014" lon="8.465295796776292"><ele>162.42857142857144</ele><time>2026-04-20T11:48:41Z</time></trkpt><trkpt lat="44.67718975374123" lon="8.465367593066539"><ele>162.28571428571428</ele><time>2026-04-20T11:48:47Z</time></trkpt><trkpt lat="44.677147360236155" lon="8.465451534703721"><ele>162.14285714285714</ele><time>2026-04-20T11:48:53Z</time></trkpt><trkpt lat="44.67711396686683" lon="8.465534732842665"><ele>162.0</ele><time>2026-04-20T11:48:58Z</time></trkpt><trkpt lat="44.677102795695994" lon="8.465638670547627"><ele>160.0</ele><time>2026-04-20T11:49:05Z</time></trkpt><trkpt lat="44.67705933544974" lon="8.465706514230066"><ele>160.0</ele><time>2026-04-20T11:49:11Z</time></trkpt><trkpt lat="44.67694396189281" lon="8.465894400588065"><ele>160.0</ele><time>2026-04-20T11:49:39.075Z</time></trkpt></trkseg></trk></gpx>